createdAt,value
2023-04-01T00:00:27.013Z,0.40
2023-04-01T00:02:54.706Z,0.40
2023-04-01T00:05:25.333Z,0.50
2023-04-01T00:07:53.358Z,0.63
2023-04-01T00:10:21.773Z,0.25
2023-04-01T00:12:57.932Z,0.63
2023-04-01T00:15:36.652Z,0.43
2023-04-01T00:18:04.774Z,0.40
2023-04-01T00:20:32.718Z,0.35
2023-04-01T00:23:00.956Z,0.35
2023-04-01T00:25:43.442Z,0.55
2023-04-01T00:28:20.813Z,0.80
2023-04-01T00:30:49.089Z,0.50
2023-04-01T00:33:36.049Z,0.60
2023-04-01T00:36:17.937Z,0.40
2023-04-01T00:39:10.596Z,0.40
2023-04-01T00:41:52.138Z,0.47
2023-04-01T00:44:24.449Z,0.43
2023-04-01T00:46:57.060Z,0.90
2023-04-01T00:49:56.060Z,0.40
2023-04-01T00:52:28.266Z,0.50
2023-04-01T00:55:03.934Z,0.77
2023-04-01T00:57:38.790Z,0.50
2023-04-01T01:00:15.837Z,0.57
2023-04-01T01:03:03.826Z,0.50
2023-04-01T01:06:18.863Z,0.30
2023-04-01T01:09:11.490Z,0.63
2023-04-01T01:17:36.489Z,0.32
2023-04-01T01:20:27.355Z,0.40
2023-04-01T01:23:58.433Z,0.40
2023-04-01T01:27:24.456Z,0.30
2023-04-01T01:30:19.995Z,0.38
2023-04-01T01:33:08.222Z,0.30
2023-04-01T01:35:56.083Z,0.30
2023-04-01T01:38:29.086Z,0.40
2023-04-01T01:41:08.310Z,0.50
2023-04-01T01:43:46.269Z,0.30
2023-04-01T01:46:22.818Z,0.40
2023-04-01T01:48:53.873Z,0.20
2023-04-01T01:51:24.568Z,0.40
2023-04-01T01:54:07.019Z,0.40
2023-04-01T01:56:58.073Z,0.30
2023-04-01T01:59:29.531Z,0.40
2023-04-01T02:05:47.833Z,0.30
2023-04-01T02:08:24.438Z,0.30
2023-04-01T02:11:13.473Z,0.52
2023-04-01T02:17:58.907Z,0.30
2023-04-01T02:20:34.192Z,0.50
2023-04-01T02:23:14.466Z,0.30
2023-04-01T02:25:45.446Z,0.20
2023-04-01T02:28:17.261Z,0.35
2023-04-01T02:30:56.455Z,0.30
2023-04-01T02:33:26.795Z,0.30
2023-04-01T02:35:58.449Z,0.40
2023-04-01T02:38:26.984Z,0.40
2023-04-01T02:41:23.842Z,0.38
2023-04-01T02:43:51.463Z,0.28
2023-04-01T02:46:31.957Z,0.30
2023-04-01T02:49:00.284Z,0.43
2023-04-01T02:51:32.695Z,0.50
2023-04-01T02:54:12.109Z,0.40
2023-04-01T02:57:03.698Z,0.30
2023-04-01T02:59:42.958Z,0.43
2023-04-01T03:02:14.994Z,0.30
2023-04-01T03:04:45.034Z,0.20
2023-04-01T03:07:16.303Z,0.28
2023-04-01T03:09:45.782Z,0.20
2023-04-01T03:12:14.780Z,0.30
2023-04-01T03:14:50.634Z,0.20
2023-04-01T03:17:21.872Z,0.30
2023-04-01T03:19:49.842Z,0.28
2023-04-01T03:22:18.559Z,0.20
2023-04-01T03:24:50.288Z,0.28
2023-04-01T03:27:19.135Z,0.50
2023-04-01T03:29:47.253Z,0.30
2023-04-01T03:32:17.784Z,0.20
2023-04-01T03:34:54.618Z,0.30
2023-04-01T03:37:24.884Z,0.25
2023-04-01T03:39:53.097Z,0.20
2023-04-01T03:42:21.244Z,0.20
2023-04-01T03:44:55.794Z,0.10
2023-04-01T03:47:30.676Z,0.20
2023-04-01T03:50:00.161Z,0.20
2023-04-01T03:52:32.302Z,0.10
2023-04-01T03:55:01.077Z,0.20
2023-04-01T03:57:29.978Z,0.30
2023-04-01T04:00:02.098Z,0.30
2023-04-01T04:02:31.502Z,0.20
2023-04-01T04:04:59.829Z,0.20
2023-04-01T04:08:19.195Z,0.20
2023-04-01T04:10:47.588Z,0.30
2023-04-01T04:13:16.226Z,0.52
2023-04-01T04:15:51.357Z,0.43
2023-04-01T04:18:23.220Z,0.20
2023-04-01T04:20:52.317Z,0.20
2023-04-01T04:23:54.892Z,0.25
2023-04-01T04:26:23.395Z,0.20
2023-04-01T04:29:06.900Z,0.30
2023-04-01T04:32:08.088Z,1.10
2023-04-01T04:34:38.082Z,0.90
2023-04-01T04:37:06.299Z,0.40
2023-04-01T04:39:46.840Z,0.50
2023-04-01T04:42:14.464Z,0.30
2023-04-01T04:44:43.788Z,0.30
2023-04-01T04:47:15.154Z,0.38
2023-04-01T04:49:42.821Z,0.40
2023-04-01T04:53:14.984Z,0.30
2023-04-01T04:56:14.462Z,0.20
2023-04-01T04:58:50.406Z,0.20
2023-04-01T05:01:23.035Z,0.50
2023-04-01T05:03:52.944Z,0.30
2023-04-01T05:06:48.628Z,0.20
2023-04-01T05:09:18.356Z,0.50
2023-04-01T05:11:55.099Z,0.40
2023-04-01T05:14:26.905Z,0.30
2023-04-01T05:17:12.950Z,0.35
2023-04-01T05:19:41.485Z,0.45
2023-04-01T05:22:13.399Z,0.30
2023-04-01T05:24:43.114Z,0.30
2023-04-01T05:27:13.344Z,0.25
2023-04-01T05:29:44.037Z,0.20
2023-04-01T05:32:36.330Z,0.38
2023-04-01T05:35:11.307Z,0.30
2023-04-01T05:38:04.652Z,0.30
2023-04-01T05:40:47.709Z,0.50
2023-04-01T05:43:25.854Z,0.25
2023-04-01T05:45:55.397Z,0.32
2023-04-01T05:48:44.089Z,0.32
2023-04-01T05:51:16.090Z,0.30
2023-04-01T05:53:46.775Z,0.40
2023-04-01T05:56:15.579Z,0.40
2023-04-01T05:58:57.470Z,0.30
2023-04-01T06:01:26.167Z,0.40
2023-04-01T06:03:55.756Z,0.52
2023-04-01T06:10:19.302Z,0.40
2023-04-01T06:13:03.523Z,1.00
2023-04-01T06:15:41.510Z,0.80
2023-04-01T06:19:22.966Z,0.77
2023-04-01T06:26:48.441Z,0.70
2023-04-01T06:30:15.903Z,0.85
2023-04-01T06:33:34.956Z,0.50
2023-04-01T06:36:35.097Z,0.70
2023-04-01T06:40:40.847Z,0.35
2023-04-01T06:43:26.955Z,0.57
2023-04-01T06:50:59.296Z,0.30
2023-04-01T06:54:48.999Z,0.20
2023-04-01T06:58:06.448Z,0.30
2023-04-01T07:00:38.067Z,0.50
2023-04-01T07:03:25.674Z,0.30
2023-04-01T07:05:55.249Z,0.40
2023-04-01T07:08:27.677Z,0.30
2023-04-01T07:11:07.524Z,0.30
2023-04-01T07:14:08.143Z,0.25
2023-04-01T07:16:45.233Z,0.30
2023-04-01T07:19:34.760Z,0.20
2023-04-01T07:22:15.806Z,0.30
2023-04-01T07:25:26.568Z,0.50
2023-04-01T07:28:19.140Z,0.30
2023-04-01T07:34:23.711Z,0.55
2023-04-01T07:37:15.187Z,0.35
2023-04-01T07:40:13.889Z,0.70
2023-04-01T07:43:20.579Z,0.60
2023-04-01T07:46:43.316Z,0.38
2023-04-01T07:49:28.917Z,0.50
2023-04-01T07:55:11.940Z,1.10
2023-04-01T07:57:54.117Z,0.70
2023-04-01T08:00:31.633Z,0.50
2023-04-01T08:03:35.090Z,0.38
2023-04-01T08:06:38.304Z,0.60
2023-04-01T08:09:42.300Z,0.40
2023-04-01T08:13:11.503Z,0.50
2023-04-01T08:16:33.713Z,0.60
2023-04-01T08:19:10.898Z,0.50
2023-04-01T08:21:54.773Z,0.60
2023-04-01T08:24:47.091Z,0.43
2023-04-01T08:27:39.229Z,0.65
2023-04-01T08:30:29.817Z,0.55
2023-04-01T08:33:11.624Z,0.20
2023-04-01T08:36:00.333Z,0.40
2023-04-01T08:38:34.705Z,0.40
2023-04-01T08:41:10.134Z,0.40
2023-04-01T08:44:37.565Z,0.35
2023-04-01T08:47:41.267Z,0.30
2023-04-01T08:50:21.059Z,0.40
2023-04-01T08:53:15.154Z,0.95
2023-04-01T08:56:11.792Z,0.30
2023-04-01T08:59:19.168Z,0.40
2023-04-01T09:01:59.327Z,0.30
2023-04-01T09:05:05.115Z,0.40
2023-04-01T09:07:43.610Z,0.50
2023-04-01T09:10:39.840Z,0.32
2023-04-01T09:13:40.779Z,0.68
2023-04-01T09:16:21.136Z,0.60
2023-04-01T09:18:48.670Z,0.52
2023-04-01T09:21:49.837Z,0.70
2023-04-01T09:24:44.068Z,0.50
2023-04-01T09:27:28.376Z,1.17
2023-04-01T09:30:32.784Z,0.70
2023-04-01T09:35:33.037Z,0.63
2023-04-01T09:38:29.857Z,0.60
2023-04-01T09:41:32.006Z,0.40
2023-04-01T09:44:33.143Z,0.60
2023-04-01T09:47:48.463Z,0.82
2023-04-01T09:50:47.041Z,0.40
2023-04-01T09:53:26.805Z,0.40
2023-04-01T09:56:18.406Z,0.40
2023-04-01T09:59:33.151Z,0.50
2023-04-01T10:02:55.983Z,0.77
2023-04-01T10:05:34.960Z,0.40
2023-04-01T10:08:28.823Z,0.35
2023-04-01T10:11:24.579Z,0.43
2023-04-01T10:14:11.810Z,0.50
2023-04-01T10:17:01.674Z,0.30
2023-04-01T10:19:40.635Z,0.47
2023-04-01T10:22:30.344Z,0.52
2023-04-01T10:25:26.844Z,0.70
2023-04-01T10:28:13.785Z,0.45
2023-04-01T10:31:28.194Z,0.70
2023-04-01T10:34:04.377Z,0.55
2023-04-01T10:36:40.368Z,0.68
2023-04-01T10:39:34.006Z,0.60
2023-04-01T10:42:35.070Z,0.50
2023-04-01T10:45:47.936Z,0.60
2023-04-01T10:48:45.253Z,0.45
2023-04-01T10:51:19.104Z,0.50
2023-04-01T10:54:22.156Z,0.30
2023-04-01T10:57:54.428Z,0.40
2023-04-01T11:00:53.091Z,0.40
2023-04-01T11:04:07.260Z,0.50
2023-04-01T11:06:55.326Z,0.40
2023-04-01T11:09:22.098Z,0.40
2023-04-01T11:12:15.411Z,0.65
2023-04-01T11:15:04.032Z,0.60
2023-04-01T11:18:01.979Z,0.43
2023-04-01T11:20:34.655Z,0.50
2023-04-01T11:23:01.346Z,0.50
2023-04-01T11:26:05.703Z,1.20
2023-04-01T11:29:13.665Z,0.60
2023-04-01T11:32:18.913Z,0.50
2023-04-01T11:34:56.356Z,0.47
2023-04-01T11:37:42.760Z,0.55
2023-04-01T11:41:01.438Z,0.60
2023-04-01T11:44:13.860Z,0.35
2023-04-01T11:47:25.684Z,0.30
2023-04-01T11:50:01.052Z,0.60
2023-04-01T11:53:00.167Z,0.40
2023-04-01T11:55:35.081Z,0.40
2023-04-01T11:58:14.207Z,0.40
2023-04-01T12:00:55.982Z,0.40
2023-04-01T12:03:31.745Z,0.50
2023-04-01T12:06:36.409Z,0.50
2023-04-01T12:09:41.315Z,0.35
2023-04-01T12:12:58.006Z,0.30
2023-04-01T12:15:42.423Z,0.50
2023-04-01T12:18:09.030Z,0.30
2023-04-01T12:20:50.281Z,0.30
2023-04-01T12:23:35.882Z,0.55
2023-04-01T12:26:17.806Z,0.50
2023-04-01T12:29:29.347Z,0.30
2023-04-01T12:32:17.422Z,0.47
2023-04-01T12:35:26.260Z,0.30
2023-04-01T12:38:05.207Z,0.38
2023-04-01T12:40:41.009Z,0.40
2023-04-01T12:43:54.405Z,0.45
2023-04-01T12:47:04.166Z,0.25
2023-04-01T12:49:56.734Z,0.25
2023-04-01T12:52:44.769Z,0.40
2023-04-01T12:55:38.933Z,0.40
2023-04-01T12:58:43.183Z,0.20
2023-04-01T13:01:28.796Z,0.40
2023-04-01T13:04:22.872Z,0.65
2023-04-01T13:06:58.519Z,0.50
2023-04-01T13:09:51.580Z,0.43
2023-04-01T13:12:52.617Z,0.40
2023-04-01T13:15:54.758Z,0.40
2023-04-01T13:18:33.695Z,0.45
2023-04-01T13:21:31.438Z,0.50
2023-04-01T13:24:19.782Z,0.55
2023-04-01T13:27:01.304Z,0.40
2023-04-01T13:29:46.274Z,0.40
2023-04-01T13:32:42.434Z,0.65
2023-04-01T13:36:01.048Z,0.30
2023-04-01T13:38:59.806Z,0.30
2023-04-01T13:42:03.568Z,0.35
2023-04-01T13:44:52.636Z,0.40
2023-04-01T13:47:25.543Z,0.30
2023-04-01T13:50:29.666Z,0.80
2023-04-01T13:53:08.277Z,0.60
2023-04-01T13:55:51.982Z,0.50
2023-04-01T13:58:47.787Z,0.45
2023-04-01T14:01:31.742Z,0.90
2023-04-01T14:04:28.873Z,1.33
2023-04-01T14:07:01.943Z,1.50
2023-04-01T14:10:06.676Z,0.85
2023-04-01T14:12:52.722Z,0.50
2023-04-01T14:15:50.668Z,0.45
2023-04-01T14:18:37.536Z,0.50
2023-04-01T14:21:35.646Z,0.70
2023-04-01T14:24:33.427Z,0.50
2023-04-01T14:27:13.635Z,0.50
2023-04-01T14:30:18.015Z,0.32
2023-04-01T14:32:50.699Z,0.50
2023-04-01T14:35:35.306Z,0.30
2023-04-01T14:38:26.065Z,0.20
2023-04-01T14:41:17.967Z,0.40
2023-04-01T14:43:53.719Z,0.20
2023-04-01T14:47:03.739Z,0.60
2023-04-01T14:49:39.448Z,0.25
2023-04-01T14:52:24.108Z,0.40
2023-04-01T14:54:52.935Z,0.30
2023-04-01T14:57:30.046Z,0.35
2023-04-01T15:00:05.805Z,0.40
2023-04-01T15:03:31.158Z,0.22
2023-04-01T15:06:16.533Z,0.50
2023-04-01T15:08:58.454Z,0.30
2023-04-01T15:11:49.916Z,0.52
2023-04-01T15:14:24.852Z,0.30
2023-04-01T15:17:00.760Z,0.30
2023-04-01T15:19:48.708Z,0.20
2023-04-01T15:22:56.689Z,0.28
2023-04-01T15:26:00.901Z,0.30
2023-04-01T15:28:46.237Z,0.32
2023-04-01T15:31:22.781Z,0.20
2023-04-01T15:33:58.827Z,0.40
2023-04-01T15:36:34.589Z,0.20
2023-04-01T15:39:09.632Z,0.40
2023-04-01T15:41:46.765Z,0.40
2023-04-01T15:45:04.648Z,0.35
2023-04-01T15:47:38.907Z,0.50
2023-04-01T15:50:24.422Z,0.50
2023-04-01T15:53:13.789Z,0.40
2023-04-01T15:55:58.347Z,0.30
2023-04-01T15:58:27.974Z,0.25
2023-04-01T16:01:29.573Z,0.30
2023-04-01T16:04:15.154Z,0.38
2023-04-01T16:06:44.719Z,0.47
2023-04-01T16:09:35.487Z,0.40
2023-04-01T16:12:17.293Z,0.30
2023-04-01T16:14:59.268Z,0.70
2023-04-01T16:17:41.601Z,0.55
2023-04-01T16:23:14.625Z,0.50
2023-04-01T16:25:46.452Z,0.30
2023-04-01T16:28:31.675Z,0.40
2023-04-01T16:31:07.094Z,0.50
2023-04-01T16:33:41.466Z,0.50
2023-04-01T16:36:29.414Z,0.70
2023-04-01T16:39:14.970Z,0.50
2023-04-01T16:41:59.109Z,0.50
2023-04-01T16:44:28.266Z,0.50
2023-04-01T16:47:11.598Z,0.30
2023-04-01T16:49:59.989Z,0.50
2023-04-01T16:52:44.483Z,0.40
2023-04-01T16:55:20.588Z,0.50
2023-04-01T16:58:02.009Z,0.60
2023-04-01T17:00:30.519Z,0.60
2023-04-01T17:03:10.957Z,0.68
2023-04-01T17:05:49.933Z,0.40
2023-04-01T17:08:32.302Z,0.65
2023-04-01T17:11:18.472Z,0.85
2023-04-01T17:13:55.918Z,0.60
2023-04-01T17:16:44.148Z,0.38
2023-04-01T17:19:41.654Z,0.40
2023-04-01T17:22:22.808Z,0.43
2023-04-01T17:25:11.308Z,0.60
2023-04-01T17:27:49.518Z,0.47
2023-04-01T17:30:34.637Z,0.60
2023-04-01T17:33:28.940Z,0.80
2023-04-01T17:35:55.566Z,0.70
2023-04-01T17:39:04.061Z,0.50
2023-04-01T17:41:46.819Z,0.50
2023-04-01T17:44:30.474Z,0.60
2023-04-01T17:47:42.699Z,0.63
2023-04-01T17:50:23.317Z,0.60
2023-04-01T17:53:13.284Z,0.70
2023-04-01T17:55:55.072Z,0.82
2023-04-01T17:58:41.987Z,0.80
2023-04-01T18:01:21.123Z,0.88
2023-04-01T18:04:06.078Z,0.57
2023-04-01T18:06:57.575Z,0.60
2023-04-01T18:09:50.905Z,0.50
2023-04-01T18:12:46.235Z,0.60
2023-04-01T18:15:30.556Z,0.77
2023-04-01T18:18:00.078Z,0.80
2023-04-01T18:20:32.493Z,0.70
2023-04-01T18:23:11.514Z,0.70
2023-04-01T18:25:45.159Z,1.13
2023-04-01T18:28:36.788Z,1.05
2023-04-01T18:31:03.421Z,1.20
2023-04-01T18:33:43.790Z,1.25
2023-04-01T18:36:43.103Z,0.80
2023-04-01T18:39:31.798Z,0.80
2023-04-01T18:42:17.151Z,0.60
2023-04-01T18:44:49.855Z,0.68
2023-04-01T18:47:51.601Z,0.70
2023-04-01T18:50:31.204Z,1.00
2023-04-01T18:53:16.556Z,1.08
2023-04-01T18:55:51.498Z,0.93
2023-04-01T18:58:23.338Z,1.60
2023-04-01T19:01:13.052Z,1.20
2023-04-01T19:04:08.795Z,1.20
2023-04-01T19:06:55.976Z,1.15
2023-04-01T19:09:30.514Z,1.42
2023-04-01T19:12:14.775Z,1.40
2023-04-01T19:15:20.967Z,1.10
2023-04-01T19:18:18.171Z,1.10
2023-04-01T19:20:57.868Z,0.80
2023-04-01T19:24:02.408Z,1.05
2023-04-01T19:27:00.145Z,1.70
2023-04-01T19:29:56.393Z,1.75
2023-04-01T19:33:02.065Z,0.85
2023-04-01T19:35:52.772Z,0.90
2023-04-01T19:38:36.620Z,1.10
2023-04-01T19:41:28.631Z,2.40
2023-04-01T19:44:07.575Z,1.95
2023-04-01T19:47:31.742Z,2.60
2023-04-01T19:50:19.512Z,1.05
2023-04-01T19:52:49.495Z,0.70
2023-04-01T19:55:44.048Z,0.60
2023-04-01T19:58:34.040Z,0.90
2023-04-01T20:01:01.538Z,0.70
2023-04-01T20:03:36.285Z,1.02
2023-04-01T20:06:07.698Z,0.60
2023-04-01T20:08:42.013Z,0.80
2023-04-01T20:11:36.192Z,0.80
2023-04-01T20:14:41.060Z,1.20
2023-04-01T20:17:08.088Z,0.93
2023-04-01T20:19:40.817Z,1.00
2023-04-01T20:22:54.112Z,0.80
2023-04-01T20:25:27.844Z,0.90
2023-04-01T20:28:15.645Z,1.00
2023-04-01T20:30:42.188Z,0.90
2023-04-01T20:33:21.955Z,0.90
2023-04-01T20:36:23.760Z,0.75
2023-04-01T20:38:53.343Z,0.80
2023-04-01T20:41:51.536Z,0.70
2023-04-01T20:44:28.626Z,1.05
2023-04-01T20:47:20.234Z,1.60
2023-04-01T20:50:16.518Z,1.60
2023-04-01T20:52:54.576Z,1.00
2023-04-01T20:55:47.502Z,0.88
2023-04-01T20:58:20.951Z,1.08
2023-04-01T21:00:59.170Z,1.10
2023-04-01T21:03:56.802Z,0.98
2023-04-01T21:06:29.205Z,0.73
2023-04-01T21:12:01.081Z,0.80
2023-04-01T21:14:48.374Z,0.88
2023-04-01T21:17:43.398Z,0.85
2023-04-01T21:20:28.394Z,0.70
2023-04-01T21:23:09.753Z,0.63
2023-04-01T21:25:48.458Z,0.80
2023-04-01T21:28:22.388Z,0.70
2023-04-01T21:31:11.012Z,0.88
2023-04-01T21:33:52.953Z,0.90
2023-04-01T21:36:49.651Z,0.70
2023-04-01T21:39:16.193Z,0.82
2023-04-01T21:42:03.845Z,0.88
2023-04-01T21:45:02.700Z,0.90
2023-04-01T21:47:50.844Z,0.80
2023-04-01T21:50:43.548Z,0.80
2023-04-01T21:53:19.553Z,0.70
2023-04-01T21:56:24.262Z,0.90
2023-04-01T21:59:12.420Z,0.93
2023-04-01T22:01:57.304Z,1.00
2023-04-01T22:04:33.005Z,0.90
2023-04-01T22:07:20.293Z,0.80
2023-04-01T22:10:22.282Z,0.70
2023-04-01T22:13:18.080Z,0.60
2023-04-01T22:16:11.061Z,0.60
2023-04-01T22:19:14.310Z,0.88
2023-04-01T22:22:02.527Z,0.47
2023-04-01T22:24:36.269Z,0.60
2023-04-01T22:27:24.485Z,0.50
2023-04-01T22:30:10.360Z,0.60
2023-04-01T22:32:55.984Z,0.60
2023-04-01T22:35:35.023Z,0.60
2023-04-01T22:38:33.885Z,0.50
2023-04-01T22:41:13.448Z,0.55
2023-04-01T22:43:42.747Z,0.63
2023-04-01T22:46:38.234Z,0.60
2023-04-01T22:49:19.006Z,0.60
2023-04-01T22:52:10.109Z,0.57
2023-04-01T22:54:48.264Z,0.60
2023-04-01T22:57:36.516Z,0.50
2023-04-01T23:00:21.223Z,0.50
2023-04-01T23:03:27.673Z,0.40
2023-04-01T23:06:02.231Z,0.40
2023-04-01T23:08:37.843Z,0.47
2023-04-01T23:11:14.283Z,0.70
2023-04-01T23:13:49.364Z,0.50
2023-04-01T23:16:19.124Z,0.70
2023-04-01T23:18:51.050Z,0.45
2023-04-01T23:21:32.898Z,0.50
2023-04-01T23:24:11.511Z,0.60
2023-04-01T23:26:56.327Z,0.70
2023-04-01T23:29:23.859Z,0.52
2023-04-01T23:32:02.095Z,0.47
2023-04-01T23:34:30.982Z,0.50
2023-04-01T23:37:01.857Z,0.60
2023-04-01T23:39:28.927Z,0.50
2023-04-01T23:42:00.838Z,0.40
2023-04-01T23:44:29.995Z,0.50
2023-04-01T23:46:58.043Z,0.43
2023-04-01T23:49:50.462Z,0.60
2023-04-01T23:52:24.236Z,0.50
2023-04-01T23:55:04.248Z,0.50
2023-04-01T23:57:33.390Z,0.35
